createdAt,value
2023-04-07T00:01:24.992Z,9.30
2023-04-07T00:06:28.333Z,10.10
2023-04-07T00:11:31.533Z,11.50
2023-04-07T00:16:34.985Z,14.20
2023-04-07T00:21:37.652Z,11.10
2023-04-07T00:26:40.784Z,10.90
2023-04-07T00:31:43.642Z,9.80
2023-04-07T00:36:52.029Z,8.00
2023-04-07T00:41:54.787Z,9.00
2023-04-07T00:46:57.986Z,9.30
2023-04-07T00:52:01.545Z,10.80
2023-04-07T00:57:04.351Z,12.20
2023-04-07T01:02:29.394Z,11.30
2023-04-07T01:07:40.036Z,12.00
2023-04-07T01:13:14.126Z,11.50
2023-04-07T01:18:23.609Z,10.70
2023-04-07T01:24:05.258Z,9.20
2023-04-07T01:29:33.238Z,7.80
2023-04-07T01:34:38.711Z,8.80
2023-04-07T01:39:41.694Z,9.00
2023-04-07T01:44:45.813Z,10.70
2023-04-07T01:49:49.962Z,8.90
2023-04-07T01:54:54.204Z,9.30
2023-04-07T01:59:57.209Z,9.30
2023-04-07T02:05:05.857Z,8.00
2023-04-07T02:10:13.802Z,7.70
2023-04-07T02:15:18.622Z,6.70
2023-04-07T02:20:23.266Z,8.80
2023-04-07T02:25:30.874Z,9.80
2023-04-07T02:30:34.888Z,10.00
2023-04-07T02:35:37.605Z,8.40
2023-04-07T02:40:40.524Z,8.80
2023-04-07T02:45:43.736Z,5.90
2023-04-07T02:50:46.508Z,8.10
2023-04-07T02:55:49.230Z,6.70
2023-04-07T03:00:51.962Z,5.70
2023-04-07T03:05:54.822Z,8.50
2023-04-07T03:10:57.626Z,7.30
2023-04-07T03:16:00.331Z,6.20
2023-04-07T03:21:03.648Z,6.90
2023-04-07T03:26:06.941Z,6.30
2023-04-07T03:31:09.868Z,7.20
2023-04-07T03:36:14.133Z,5.30
2023-04-07T03:41:16.991Z,8.40
2023-04-07T03:46:21.566Z,8.20
2023-04-07T03:51:24.545Z,6.90
2023-04-07T03:56:28.962Z,6.90
2023-04-07T04:01:31.914Z,8.40
2023-04-07T04:06:34.816Z,7.40
2023-04-07T04:11:38.211Z,7.40
2023-04-07T04:16:40.975Z,10.00
2023-04-07T04:21:43.843Z,9.10
2023-04-07T04:26:46.822Z,9.20
2023-04-07T04:31:49.571Z,9.40
2023-04-07T04:36:52.459Z,9.20
2023-04-07T04:41:56.760Z,7.40
2023-04-07T04:46:59.653Z,6.30
2023-04-07T04:52:02.565Z,10.50
2023-04-07T04:57:05.386Z,10.60
2023-04-07T05:02:08.397Z,10.80
2023-04-07T05:07:11.505Z,9.30
2023-04-07T05:12:14.289Z,10.30
2023-04-07T05:17:17.092Z,10.20
2023-04-07T05:22:19.789Z,9.30
2023-04-07T05:27:22.591Z,10.10
2023-04-07T05:32:29.197Z,11.60
2023-04-07T05:37:31.934Z,8.10
2023-04-07T05:42:34.716Z,9.40
2023-04-07T05:47:37.975Z,10.20
2023-04-07T05:52:41.017Z,10.80
2023-04-07T05:57:43.788Z,12.60
2023-04-07T06:02:47.103Z,12.20
2023-04-07T06:07:50.120Z,11.00
2023-04-07T06:12:52.828Z,11.60
2023-04-07T06:17:55.568Z,11.90
2023-04-07T06:22:58.423Z,10.00
2023-04-07T06:28:01.344Z,11.90
2023-04-07T06:33:04.196Z,10.30
2023-04-07T06:38:07.548Z,13.30
2023-04-07T06:43:10.496Z,11.70
2023-04-07T06:48:13.280Z,13.00
2023-04-07T06:53:16.043Z,14.40
2023-04-07T06:58:18.848Z,11.90
2023-04-07T07:03:22.253Z,12.40
2023-04-07T07:08:26.507Z,14.10
2023-04-07T07:13:29.304Z,12.80
2023-04-07T07:18:32.107Z,15.30
2023-04-07T07:23:34.908Z,21.00
2023-04-07T07:28:37.711Z,18.60
2023-04-07T07:33:41.740Z,13.70
2023-04-07T07:38:44.505Z,13.60
2023-04-07T07:43:47.606Z,14.50
2023-04-07T07:48:50.511Z,15.70
2023-04-07T07:53:53.870Z,12.60
2023-04-07T07:58:58.306Z,14.70
2023-04-07T08:04:01.766Z,14.10
2023-04-07T08:09:06.346Z,15.20
2023-04-07T08:14:09.994Z,13.90
2023-04-07T08:19:13.717Z,13.30
2023-04-07T08:24:16.615Z,14.60
2023-04-07T08:29:19.527Z,12.30
2023-04-07T08:34:22.536Z,11.30
2023-04-07T08:39:28.312Z,11.60
2023-04-07T08:44:31.407Z,10.40
2023-04-07T08:49:37.751Z,13.80
2023-04-07T08:54:40.947Z,12.80
2023-04-07T08:59:45.540Z,13.10
2023-04-07T09:04:48.482Z,12.30
2023-04-07T09:09:51.624Z,10.70
2023-04-07T09:14:54.895Z,11.10
2023-04-07T09:19:59.715Z,11.70
2023-04-07T09:25:14.878Z,10.90
2023-04-07T09:30:17.589Z,11.40
2023-04-07T09:35:23.374Z,10.60
2023-04-07T09:40:27.949Z,10.80
2023-04-07T09:45:36.942Z,11.40
2023-04-07T09:50:41.691Z,11.10
2023-04-07T09:55:45.123Z,11.10
2023-04-07T10:00:48.284Z,10.80
2023-04-07T10:05:52.413Z,11.00
2023-04-07T10:10:57.577Z,10.00
2023-04-07T10:16:04.107Z,10.20
2023-04-07T10:21:08.204Z,10.30
2023-04-07T10:26:12.330Z,9.80
2023-04-07T10:31:16.360Z,9.60
2023-04-07T10:36:21.140Z,8.60
2023-04-07T10:41:38.069Z,8.70
2023-04-07T10:46:50.256Z,7.50
2023-04-07T10:52:11.496Z,8.00
2023-04-07T10:57:16.283Z,8.20
2023-04-07T11:02:25.480Z,8.20
2023-04-07T11:07:46.761Z,7.60
2023-04-07T11:13:04.272Z,7.60
2023-04-07T11:18:33.022Z,6.70
2023-04-07T11:23:41.027Z,6.50
2023-04-07T11:28:52.615Z,6.40
2023-04-07T11:34:00.858Z,5.70
2023-04-07T11:39:04.041Z,5.50
2023-04-07T11:44:11.742Z,5.90
2023-04-07T11:49:16.006Z,5.40
2023-04-07T11:54:18.990Z,5.20
2023-04-07T11:59:24.706Z,5.30
2023-04-07T12:04:28.674Z,5.60
2023-04-07T12:09:36.512Z,5.30
2023-04-07T12:14:39.621Z,5.90
2023-04-07T12:19:43.136Z,5.50
2023-04-07T12:24:46.287Z,5.70
2023-04-07T12:29:49.047Z,5.60
2023-04-07T12:34:51.849Z,5.90
2023-04-07T12:39:54.955Z,5.40
2023-04-07T12:44:57.837Z,4.90
2023-04-07T12:50:01.406Z,5.30
2023-04-07T12:55:04.907Z,5.90
2023-04-07T13:00:08.433Z,5.80
2023-04-07T13:05:13.349Z,5.80
2023-04-07T13:10:16.295Z,5.30
2023-04-07T13:15:19.379Z,7.20
2023-04-07T13:20:22.232Z,6.60
2023-04-07T13:25:25.098Z,6.60
2023-04-07T13:30:27.894Z,7.00
2023-04-07T13:35:33.902Z,7.30
2023-04-07T13:40:36.767Z,6.10
2023-04-07T13:45:39.491Z,6.20
2023-04-07T13:50:42.258Z,6.00
2023-04-07T13:55:45.076Z,5.70
2023-04-07T14:00:47.767Z,5.70
2023-04-07T14:05:50.467Z,5.30
2023-04-07T14:10:53.597Z,5.80
2023-04-07T14:15:56.318Z,6.00
2023-04-07T14:21:00.625Z,5.80
2023-04-07T14:26:04.073Z,6.30
2023-04-07T14:31:07.603Z,5.30
2023-04-07T14:36:10.776Z,6.00
2023-04-07T14:41:13.715Z,5.50
2023-04-07T14:46:16.507Z,5.50
2023-04-07T14:51:20.096Z,6.30
2023-04-07T14:56:22.972Z,5.70
2023-04-07T15:01:25.739Z,5.70
2023-04-07T15:06:28.555Z,5.10
2023-04-07T15:11:32.675Z,5.60
2023-04-07T15:16:35.937Z,6.60
2023-04-07T15:21:38.685Z,6.00
2023-04-07T15:26:41.646Z,6.40
2023-04-07T15:31:44.458Z,5.90
2023-04-07T15:36:47.348Z,5.80
2023-04-07T15:41:50.091Z,5.50
2023-04-07T15:46:54.167Z,6.40
2023-04-07T15:51:56.969Z,6.90
2023-04-07T15:56:59.891Z,5.50
2023-04-07T16:02:03.020Z,6.00
2023-04-07T16:07:05.911Z,7.50
2023-04-07T16:12:09.204Z,8.60
2023-04-07T16:17:12.117Z,7.80
2023-04-07T16:22:14.920Z,6.70
2023-04-07T16:27:17.621Z,6.30
2023-04-07T16:32:20.490Z,6.80
2023-04-07T16:37:23.337Z,7.40
2023-04-07T16:42:28.717Z,6.60
2023-04-07T16:47:32.088Z,11.40
2023-04-07T16:52:34.959Z,9.70
2023-04-07T16:57:37.715Z,10.00
2023-04-07T17:02:40.548Z,9.00
2023-04-07T17:07:43.598Z,10.00
2023-04-07T17:12:52.253Z,9.40
2023-04-07T17:17:55.002Z,9.70
2023-04-07T17:22:57.778Z,9.50
2023-04-07T17:28:00.564Z,9.30
2023-04-07T17:33:08.384Z,9.40
2023-04-07T17:38:11.548Z,10.70
2023-04-07T17:43:15.109Z,13.40
2023-04-07T17:48:17.844Z,9.50
2023-04-07T17:53:20.808Z,10.50
2023-04-07T17:58:23.615Z,10.80
2023-04-07T18:03:26.633Z,9.40
2023-04-07T18:08:30.649Z,10.30
2023-04-07T18:13:34.100Z,9.40
2023-04-07T18:18:40.444Z,9.60
2023-04-07T18:23:43.263Z,10.00
2023-04-07T18:28:46.482Z,7.30
2023-04-07T18:33:49.324Z,8.60
2023-04-07T18:38:52.277Z,8.70
2023-04-07T18:43:55.407Z,7.90
2023-04-07T18:48:58.375Z,10.60
2023-04-07T18:54:01.108Z,9.80
2023-04-07T18:59:03.932Z,10.40
2023-04-07T19:04:06.860Z,11.70
2023-04-07T19:09:10.358Z,12.80
2023-04-07T19:14:13.703Z,11.70
2023-04-07T19:19:17.852Z,13.80
2023-04-07T19:24:20.969Z,16.20
2023-04-07T19:29:23.784Z,15.90
2023-04-07T19:34:27.246Z,12.80
2023-04-07T19:39:31.117Z,9.20
2023-04-07T19:44:34.457Z,10.20
2023-04-07T19:49:37.844Z,10.80
2023-04-07T19:54:40.541Z,11.70
2023-04-07T19:59:43.244Z,11.40
2023-04-07T20:04:46.148Z,10.00
2023-04-07T20:09:51.560Z,15.40
2023-04-07T20:14:54.238Z,18.40
2023-04-07T20:19:56.927Z,17.50
2023-04-07T20:24:59.710Z,13.90
2023-04-07T20:30:03.201Z,12.20
2023-04-07T20:35:06.960Z,12.00
2023-04-07T20:40:10.169Z,10.90
2023-04-07T20:45:13.071Z,7.10
2023-04-07T20:50:16.008Z,6.40
2023-04-07T20:55:18.986Z,9.80
2023-04-07T21:00:21.991Z,7.70
2023-04-07T21:05:24.689Z,6.70
2023-04-07T21:10:27.395Z,6.40
2023-04-07T21:15:30.217Z,5.70
2023-04-07T21:20:32.911Z,6.90
2023-04-07T21:25:39.276Z,7.20
2023-04-07T21:30:42.177Z,6.60
2023-04-07T21:35:44.879Z,6.60
2023-04-07T21:40:47.696Z,6.40
2023-04-07T21:45:50.961Z,7.10
2023-04-07T21:50:53.769Z,6.20
2023-04-07T21:55:56.551Z,6.10
2023-04-07T22:00:59.294Z,5.60
2023-04-07T22:06:02.092Z,5.50
2023-04-07T22:11:05.104Z,5.30
2023-04-07T22:16:07.945Z,4.80
2023-04-07T22:21:10.758Z,6.60
2023-04-07T22:26:14.300Z,4.70
2023-04-07T22:31:17.040Z,4.70
2023-04-07T22:36:19.804Z,4.60
2023-04-07T22:41:22.834Z,4.70
2023-04-07T22:46:25.962Z,4.40
2023-04-07T22:51:29.494Z,6.50
2023-04-07T22:56:32.246Z,5.80
2023-04-07T23:01:35.183Z,6.20
2023-04-07T23:06:38.091Z,6.00
2023-04-07T23:11:40.977Z,6.40
2023-04-07T23:16:43.810Z,8.20
2023-04-07T23:21:46.678Z,7.20
2023-04-07T23:26:49.407Z,6.20
2023-04-07T23:31:52.832Z,5.20
2023-04-07T23:36:56.288Z,4.10
2023-04-07T23:41:59.019Z,5.20
2023-04-07T23:47:01.793Z,5.30
2023-04-07T23:52:04.620Z,4.90
2023-04-07T23:57:07.552Z,5.10
